sensor_id;sensor_type;location;lat;lon;timestamp;temperature;humidity
2024;DHT22;1016;48.770;9.154;2022-08-19T00:02:04;23.30;99.90
2024;DHT22;1016;48.770;9.154;2022-08-19T00:04:32;23.30;99.90
2024;DHT22;1016;48.770;9.154;2022-08-19T00:07:00;23.30;99.90
2024;DHT22;1016;48.770;9.154;2022-08-19T00:09:26;23.30;99.90
2024;DHT22;1016;48.770;9.154;2022-08-19T00:11:53;23.40;99.90
2024;DHT22;1016;48.770;9.154;2022-08-19T00:14:21;23.30;99.90
2024;DHT22;1016;48.770;9.154;2022-08-19T00:16:48;23.30;99.90
2024;DHT22;1016;48.770;9.154;2022-08-19T00:19:15;23.30;99.90
2024;DHT22;1016;48.770;9.154;2022-08-19T00:21:41;23.20;99.90
2024;DHT22;1016;48.770;9.154;2022-08-19T00:24:11;23.20;99.90
2024;DHT22;1016;48.770;9.154;2022-08-19T00:26:38;23.20;99.90
2024;DHT22;1016;48.770;9.154;2022-08-19T00:29:05;23.30;99.90
2024;DHT22;1016;48.770;9.154;2022-08-19T00:31:31;23.30;99.90
2024;DHT22;1016;48.770;9.154;2022-08-19T00:33:57;23.30;99.90
2024;DHT22;1016;48.770;9.154;2022-08-19T00:36:23;23.30;99.90
2024;DHT22;1016;48.770;9.154;2022-08-19T00:38:49;23.30;99.90
2024;DHT22;1016;48.770;9.154;2022-08-19T00:41:16;23.30;99.90
2024;DHT22;1016;48.770;9.154;2022-08-19T00:43:43;23.20;99.90
2024;DHT22;1016;48.770;9.154;2022-08-19T00:46:21;23.20;99.90
2024;DHT22;1016;48.770;9.154;2022-08-19T00:48:46;23.10;99.90
2024;DHT22;1016;48.770;9.154;2022-08-19T00:51:12;23.10;99.90
2024;DHT22;1016;48.770;9.154;2022-08-19T00:53:37;23.10;99.90
2024;DHT22;1016;48.770;9.154;2022-08-19T00:56:05;23.10;99.90
2024;DHT22;1016;48.770;9.154;2022-08-19T00:58:33;23.10;99.90
2024;DHT22;1016;48.770;9.154;2022-08-19T01:01:01;23.20;99.90
2024;DHT22;1016;48.770;9.154;2022-08-19T01:03:26;23.20;99.90
2024;DHT22;1016;48.770;9.154;2022-08-19T01:05:54;23.10;99.90
2024;DHT22;1016;48.770;9.154;2022-08-19T01:08:20;23.10;99.90
2024;DHT22;1016;48.770;9.154;2022-08-19T01:10:50;23.10;99.90
2024;DHT22;1016;48.770;9.154;2022-08-19T01:13:23;23.10;99.90
2024;DHT22;1016;48.770;9.154;2022-08-19T01:15:57;23.00;99.90
2024;DHT22;1016;48.770;9.154;2022-08-19T01:18:25;23.00;99.90
2024;DHT22;1016;48.770;9.154;2022-08-19T01:20:54;23.00;99.90
2024;DHT22;1016;48.770;9.154;2022-08-19T01:23:21;23.00;99.90
2024;DHT22;1016;48.770;9.154;2022-08-19T01:25:49;23.00;99.90
2024;DHT22;1016;48.770;9.154;2022-08-19T01:28:21;23.00;99.90
2024;DHT22;1016;48.770;9.154;2022-08-19T01:30:48;23.10;99.90
2024;DHT22;1016;48.770;9.154;2022-08-19T01:33:14;23.10;99.90
2024;DHT22;1016;48.770;9.154;2022-08-19T01:35:40;23.10;99.90
2024;DHT22;1016;48.770;9.154;2022-08-19T01:38:16;23.00;99.90
2024;DHT22;1016;48.770;9.154;2022-08-19T01:40:44;23.10;99.90
2024;DHT22;1016;48.770;9.154;2022-08-19T01:43:09;23.10;99.90
2024;DHT22;1016;48.770;9.154;2022-08-19T01:45:35;23.10;99.90
2024;DHT22;1016;48.770;9.154;2022-08-19T01:48:02;23.10;99.90
2024;DHT22;1016;48.770;9.154;2022-08-19T01:50:31;23.10;99.90
2024;DHT22;1016;48.770;9.154;2022-08-19T01:52:58;23.10;99.90
2024;DHT22;1016;48.770;9.154;2022-08-19T01:55:25;23.10;99.90
2024;DHT22;1016;48.770;9.154;2022-08-19T01:57:55;23.10;99.90
2024;DHT22;1016;48.770;9.154;2022-08-19T02:00:24;23.10;99.90
2024;DHT22;1016;48.770;9.154;2022-08-19T02:02:51;23.00;99.90
2024;DHT22;1016;48.770;9.154;2022-08-19T02:05:16;23.00;99.90
2024;DHT22;1016;48.770;9.154;2022-08-19T02:07:44;22.90;99.90
2024;DHT22;1016;48.770;9.154;2022-08-19T02:10:14;22.90;99.90
2024;DHT22;1016;48.770;9.154;2022-08-19T02:12:40;22.90;99.90
2024;DHT22;1016;48.770;9.154;2022-08-19T02:15:06;22.90;99.90
2024;DHT22;1016;48.770;9.154;2022-08-19T02:17:32;22.90;99.90
2024;DHT22;1016;48.770;9.154;2022-08-19T02:19:58;22.90;99.90
2024;DHT22;1016;48.770;9.154;2022-08-19T02:22:24;22.90;99.90
2024;DHT22;1016;48.770;9.154;2022-08-19T02:24:52;22.90;99.90
2024;DHT22;1016;48.770;9.154;2022-08-19T02:27:18;22.80;99.90
2024;DHT22;1016;48.770;9.154;2022-08-19T02:29:45;22.90;99.90
2024;DHT22;1016;48.770;9.154;2022-08-19T02:32:11;22.90;99.90
2024;DHT22;1016;48.770;9.154;2022-08-19T02:34:37;22.90;99.90
2024;DHT22;1016;48.770;9.154;2022-08-19T02:37:02;23.00;99.90
2024;DHT22;1016;48.770;9.154;2022-08-19T02:39:28;23.00;99.90
2024;DHT22;1016;48.770;9.154;2022-08-19T02:41:53;22.80;99.90
2024;DHT22;1016;48.770;9.154;2022-08-19T02:44:19;22.80;99.90
2024;DHT22;1016;48.770;9.154;2022-08-19T02:46:48;23.00;99.90
2024;DHT22;1016;48.770;9.154;2022-08-19T02:49:15;22.90;99.90
2024;DHT22;1016;48.770;9.154;2022-08-19T02:51:43;22.90;99.90
2024;DHT22;1016;48.770;9.154;2022-08-19T02:54:10;22.80;99.90
2024;DHT22;1016;48.770;9.154;2022-08-19T02:56:38;22.80;99.90
2024;DHT22;1016;48.770;9.154;2022-08-19T02:59:04;22.80;99.90
2024;DHT22;1016;48.770;9.154;2022-08-19T03:01:35;22.80;99.90
2024;DHT22;1016;48.770;9.154;2022-08-19T03:04:03;23.00;99.90
2024;DHT22;1016;48.770;9.154;2022-08-19T03:06:30;22.90;99.90
2024;DHT22;1016;48.770;9.154;2022-08-19T03:08:56;22.90;99.90
2024;DHT22;1016;48.770;9.154;2022-08-19T03:11:25;22.90;99.90
2024;DHT22;1016;48.770;9.154;2022-08-19T03:13:52;22.90;99.90
2024;DHT22;1016;48.770;9.154;2022-08-19T03:16:19;22.90;99.90
2024;DHT22;1016;48.770;9.154;2022-08-19T03:18:46;22.80;99.90
2024;DHT22;1016;48.770;9.154;2022-08-19T03:21:23;22.80;99.90
2024;DHT22;1016;48.770;9.154;2022-08-19T03:23:49;22.80;99.90
2024;DHT22;1016;48.770;9.154;2022-08-19T03:26:16;22.70;99.90
2024;DHT22;1016;48.770;9.154;2022-08-19T03:28:43;22.70;99.90
2024;DHT22;1016;48.770;9.154;2022-08-19T03:31:13;22.60;99.90
2024;DHT22;1016;48.770;9.154;2022-08-19T03:33:40;22.50;99.90
2024;DHT22;1016;48.770;9.154;2022-08-19T03:36:15;22.50;99.90
2024;DHT22;1016;48.770;9.154;2022-08-19T03:38:47;22.50;99.90
2024;DHT22;1016;48.770;9.154;2022-08-19T03:41:17;22.50;99.90
2024;DHT22;1016;48.770;9.154;2022-08-19T03:43:44;22.40;99.90
2024;DHT22;1016;48.770;9.154;2022-08-19T03:46:21;22.50;99.90
2024;DHT22;1016;48.770;9.154;2022-08-19T03:48:48;22.50;99.90
2024;DHT22;1016;48.770;9.154;2022-08-19T03:51:20;22.50;99.90
2024;DHT22;1016;48.770;9.154;2022-08-19T03:53:47;22.70;99.90
2024;DHT22;1016;48.770;9.154;2022-08-19T03:56:13;22.60;99.90
2024;DHT22;1016;48.770;9.154;2022-08-19T03:58:40;22.60;99.90
2024;DHT22;1016;48.770;9.154;2022-08-19T04:01:14;22.60;99.90
2024;DHT22;1016;48.770;9.154;2022-08-19T04:03:40;22.60;99.90
2024;DHT22;1016;48.770;9.154;2022-08-19T04:06:14;22.60;99.90
2024;DHT22;1016;48.770;9.154;2022-08-19T04:08:41;22.60;99.90
2024;DHT22;1016;48.770;9.154;2022-08-19T04:11:11;22.60;99.90
2024;DHT22;1016;48.770;9.154;2022-08-19T04:13:37;22.60;99.90
2024;DHT22;1016;48.770;9.154;2022-08-19T04:16:04;22.50;99.90
2024;DHT22;1016;48.770;9.154;2022-08-19T04:18:30;22.50;99.90
2024;DHT22;1016;48.770;9.154;2022-08-19T04:20:56;22.50;99.90
2024;DHT22;1016;48.770;9.154;2022-08-19T04:23:22;22.60;99.90
2024;DHT22;1016;48.770;9.154;2022-08-19T04:25:48;22.50;99.90
2024;DHT22;1016;48.770;9.154;2022-08-19T04:28:14;22.50;99.90
2024;DHT22;1016;48.770;9.154;2022-08-19T04:30:45;22.50;99.90
2024;DHT22;1016;48.770;9.154;2022-08-19T04:33:12;22.50;99.90
2024;DHT22;1016;48.770;9.154;2022-08-19T04:35:40;22.50;99.90
2024;DHT22;1016;48.770;9.154;2022-08-19T04:38:07;22.50;99.90
2024;DHT22;1016;48.770;9.154;2022-08-19T04:40:33;22.50;99.90
2024;DHT22;1016;48.770;9.154;2022-08-19T04:43:18;22.40;99.90
2024;DHT22;1016;48.770;9.154;2022-08-19T04:45:44;22.40;99.90
2024;DHT22;1016;48.770;9.154;2022-08-19T04:48:11;22.30;99.90
2024;DHT22;1016;48.770;9.154;2022-08-19T04:50:39;22.30;99.90
2024;DHT22;1016;48.770;9.154;2022-08-19T04:53:06;22.40;99.90
2024;DHT22;1016;48.770;9.154;2022-08-19T04:55:31;22.40;99.90
2024;DHT22;1016;48.770;9.154;2022-08-19T04:57:57;22.30;99.90
2024;DHT22;1016;48.770;9.154;2022-08-19T05:00:23;22.30;99.90
2024;DHT22;1016;48.770;9.154;2022-08-19T05:02:48;22.40;99.90
2024;DHT22;1016;48.770;9.154;2022-08-19T05:05:14;22.50;99.90
2024;DHT22;1016;48.770;9.154;2022-08-19T05:07:40;22.50;99.90
2024;DHT22;1016;48.770;9.154;2022-08-19T05:10:06;22.40;99.90
2024;DHT22;1016;48.770;9.154;2022-08-19T05:12:32;22.30;99.90
2024;DHT22;1016;48.770;9.154;2022-08-19T05:14:58;22.30;99.90
2024;DHT22;1016;48.770;9.154;2022-08-19T05:17:27;22.20;99.90
2024;DHT22;1016;48.770;9.154;2022-08-19T05:19:53;22.20;99.90
2024;DHT22;1016;48.770;9.154;2022-08-19T05:22:37;22.20;99.90
2024;DHT22;1016;48.770;9.154;2022-08-19T05:25:12;22.30;99.90
2024;DHT22;1016;48.770;9.154;2022-08-19T05:27:38;22.20;99.90
2024;DHT22;1016;48.770;9.154;2022-08-19T05:30:04;22.20;99.90
2024;DHT22;1016;48.770;9.154;2022-08-19T05:32:30;22.20;99.90
2024;DHT22;1016;48.770;9.154;2022-08-19T05:34:56;22.30;99.90
2024;DHT22;1016;48.770;9.154;2022-08-19T05:37:22;22.30;99.90
2024;DHT22;1016;48.770;9.154;2022-08-19T05:39:48;22.30;99.90
2024;DHT22;1016;48.770;9.154;2022-08-19T05:42:14;22.40;99.90
2024;DHT22;1016;48.770;9.154;2022-08-19T05:44:42;22.40;99.90
2024;DHT22;1016;48.770;9.154;2022-08-19T05:47:10;22.40;99.90
2024;DHT22;1016;48.770;9.154;2022-08-19T05:49:36;22.30;99.90
2024;DHT22;1016;48.770;9.154;2022-08-19T05:52:10;22.30;99.90
2024;DHT22;1016;48.770;9.154;2022-08-19T05:54:37;22.30;99.90
2024;DHT22;1016;48.770;9.154;2022-08-19T05:57:05;22.30;99.90
2024;DHT22;1016;48.770;9.154;2022-08-19T05:59:31;22.40;99.90
2024;DHT22;1016;48.770;9.154;2022-08-19T06:01:56;22.40;99.90
2024;DHT22;1016;48.770;9.154;2022-08-19T06:04:23;22.50;99.90
2024;DHT22;1016;48.770;9.154;2022-08-19T06:06:50;22.40;99.90
2024;DHT22;1016;48.770;9.154;2022-08-19T06:09:16;22.40;99.90
2024;DHT22;1016;48.770;9.154;2022-08-19T06:11:47;22.40;99.90
2024;DHT22;1016;48.770;9.154;2022-08-19T06:14:17;22.40;99.90
2024;DHT22;1016;48.770;9.154;2022-08-19T06:16:44;22.50;99.90
2024;DHT22;1016;48.770;9.154;2022-08-19T06:19:13;22.40;99.90
2024;DHT22;1016;48.770;9.154;2022-08-19T06:21:41;22.40;99.90
2024;DHT22;1016;48.770;9.154;2022-08-19T06:24:09;22.40;99.90
2024;DHT22;1016;48.770;9.154;2022-08-19T06:26:37;22.40;99.90
2024;DHT22;1016;48.770;9.154;2022-08-19T06:29:05;22.50;99.90
2024;DHT22;1016;48.770;9.154;2022-08-19T06:31:32;22.40;99.90
2024;DHT22;1016;48.770;9.154;2022-08-19T06:34:02;22.40;99.90
2024;DHT22;1016;48.770;9.154;2022-08-19T06:36:35;22.40;99.90
2024;DHT22;1016;48.770;9.154;2022-08-19T06:39:04;22.30;99.90
2024;DHT22;1016;48.770;9.154;2022-08-19T06:41:31;22.40;99.90
2024;DHT22;1016;48.770;9.154;2022-08-19T06:43:59;22.30;99.90
2024;DHT22;1016;48.770;9.154;2022-08-19T06:46:24;22.30;99.90
2024;DHT22;1016;48.770;9.154;2022-08-19T06:48:51;22.30;99.90
2024;DHT22;1016;48.770;9.154;2022-08-19T06:51:19;22.30;99.90
2024;DHT22;1016;48.770;9.154;2022-08-19T06:53:46;22.30;99.90
2024;DHT22;1016;48.770;9.154;2022-08-19T06:56:13;22.40;99.90
2024;DHT22;1016;48.770;9.154;2022-08-19T06:58:39;22.50;99.90
2024;DHT22;1016;48.770;9.154;2022-08-19T07:01:05;22.50;99.90
2024;DHT22;1016;48.770;9.154;2022-08-19T07:03:33;22.40;99.90
2024;DHT22;1016;48.770;9.154;2022-08-19T07:06:08;22.30;99.90
2024;DHT22;1016;48.770;9.154;2022-08-19T07:08:35;22.30;99.90
2024;DHT22;1016;48.770;9.154;2022-08-19T07:11:05;22.30;99.90
2024;DHT22;1016;48.770;9.154;2022-08-19T07:13:32;22.30;99.90
2024;DHT22;1016;48.770;9.154;2022-08-19T07:16:08;22.30;99.90
2024;DHT22;1016;48.770;9.154;2022-08-19T07:18:35;22.30;99.90
2024;DHT22;1016;48.770;9.154;2022-08-19T07:21:06;22.40;99.90
2024;DHT22;1016;48.770;9.154;2022-08-19T07:23:32;22.40;99.90
2024;DHT22;1016;48.770;9.154;2022-08-19T07:25:58;22.40;99.90
2024;DHT22;1016;48.770;9.154;2022-08-19T07:28:23;22.40;99.90
2024;DHT22;1016;48.770;9.154;2022-08-19T07:30:49;22.40;99.90
2024;DHT22;1016;48.770;9.154;2022-08-19T07:33:16;22.40;99.90
2024;DHT22;1016;48.770;9.154;2022-08-19T07:35:43;22.40;99.90
2024;DHT22;1016;48.770;9.154;2022-08-19T07:38:09;22.50;99.90
2024;DHT22;1016;48.770;9.154;2022-08-19T07:40:35;22.50;99.90
2024;DHT22;1016;48.770;9.154;2022-08-19T07:43:01;22.60;99.90
2024;DHT22;1016;48.770;9.154;2022-08-19T07:45:26;22.60;99.90
2024;DHT22;1016;48.770;9.154;2022-08-19T07:47:53;22.60;99.90
2024;DHT22;1016;48.770;9.154;2022-08-19T07:50:20;22.60;99.90
2024;DHT22;1016;48.770;9.154;2022-08-19T07:52:47;22.60;99.90
2024;DHT22;1016;48.770;9.154;2022-08-19T07:55:15;22.50;99.90
2024;DHT22;1016;48.770;9.154;2022-08-19T07:57:41;22.50;99.90
2024;DHT22;1016;48.770;9.154;2022-08-19T08:00:07;22.50;99.90
2024;DHT22;1016;48.770;9.154;2022-08-19T08:02:33;22.50;99.90
2024;DHT22;1016;48.770;9.154;2022-08-19T08:04:59;22.50;99.90
2024;DHT22;1016;48.770;9.154;2022-08-19T08:07:43;22.60;99.90
2024;DHT22;1016;48.770;9.154;2022-08-19T08:10:27;22.60;99.90
2024;DHT22;1016;48.770;9.154;2022-08-19T08:12:53;22.50;99.90
2024;DHT22;1016;48.770;9.154;2022-08-19T08:15:20;22.50;99.90
2024;DHT22;1016;48.770;9.154;2022-08-19T08:17:46;22.60;99.90
2024;DHT22;1016;48.770;9.154;2022-08-19T08:20:13;22.60;99.90
2024;DHT22;1016;48.770;9.154;2022-08-19T08:22:43;22.50;99.90
2024;DHT22;1016;48.770;9.154;2022-08-19T08:25:28;22.60;99.90
2024;DHT22;1016;48.770;9.154;2022-08-19T08:27:56;22.50;99.90
2024;DHT22;1016;48.770;9.154;2022-08-19T08:30:25;22.50;99.90
2024;DHT22;1016;48.770;9.154;2022-08-19T08:32:51;22.50;99.90
2024;DHT22;1016;48.770;9.154;2022-08-19T08:35:20;22.50;99.90
2024;DHT22;1016;48.770;9.154;2022-08-19T08:37:47;22.50;99.90
2024;DHT22;1016;48.770;9.154;2022-08-19T08:40:28;22.50;99.90
2024;DHT22;1016;48.770;9.154;2022-08-19T08:43:05;22.50;99.90
2024;DHT22;1016;48.770;9.154;2022-08-19T08:45:35;22.60;99.90
2024;DHT22;1016;48.770;9.154;2022-08-19T08:48:05;22.60;99.90
2024;DHT22;1016;48.770;9.154;2022-08-19T08:50:41;22.60;99.90
2024;DHT22;1016;48.770;9.154;2022-08-19T08:53:09;22.60;99.90
2024;DHT22;1016;48.770;9.154;2022-08-19T08:55:36;22.60;99.90
2024;DHT22;1016;48.770;9.154;2022-08-19T08:58:06;22.60;99.90
2024;DHT22;1016;48.770;9.154;2022-08-19T09:00:36;22.70;99.90
2024;DHT22;1016;48.770;9.154;2022-08-19T09:03:27;22.70;99.90
2024;DHT22;1016;48.770;9.154;2022-08-19T09:06:22;22.60;99.90
2024;DHT22;1016;48.770;9.154;2022-08-19T09:09:17;22.60;99.90
2024;DHT22;1016;48.770;9.154;2022-08-19T09:17:00;22.60;99.90
2024;DHT22;1016;48.770;9.154;2022-08-19T09:19:28;22.60;99.90
2024;DHT22;1016;48.770;9.154;2022-08-19T09:21:54;22.60;99.90
2024;DHT22;1016;48.770;9.154;2022-08-19T09:24:20;22.60;99.90
2024;DHT22;1016;48.770;9.154;2022-08-19T09:26:45;22.60;99.90
2024;DHT22;1016;48.770;9.154;2022-08-19T09:29:11;22.60;99.90
2024;DHT22;1016;48.770;9.154;2022-08-19T09:31:38;22.60;99.90
2024;DHT22;1016;48.770;9.154;2022-08-19T09:34:04;22.60;99.90
2024;DHT22;1016;48.770;9.154;2022-08-19T09:36:31;22.70;99.90
2024;DHT22;1016;48.770;9.154;2022-08-19T09:39:04;22.70;99.90
2024;DHT22;1016;48.770;9.154;2022-08-19T09:41:30;22.70;99.90
2024;DHT22;1016;48.770;9.154;2022-08-19T09:43:57;22.90;99.90
2024;DHT22;1016;48.770;9.154;2022-08-19T09:46:27;22.90;99.90
2024;DHT22;1016;48.770;9.154;2022-08-19T09:48:54;22.90;99.90
2024;DHT22;1016;48.770;9.154;2022-08-19T09:51:24;22.90;99.90
2024;DHT22;1016;48.770;9.154;2022-08-19T09:53:52;23.00;99.90
2024;DHT22;1016;48.770;9.154;2022-08-19T09:56:21;22.90;99.90
2024;DHT22;1016;48.770;9.154;2022-08-19T09:58:47;22.90;99.90
2024;DHT22;1016;48.770;9.154;2022-08-19T10:01:18;23.00;99.90
2024;DHT22;1016;48.770;9.154;2022-08-19T10:03:48;23.00;99.90
2024;DHT22;1016;48.770;9.154;2022-08-19T10:06:14;23.00;99.90
2024;DHT22;1016;48.770;9.154;2022-08-19T10:08:39;23.00;99.90
2024;DHT22;1016;48.770;9.154;2022-08-19T10:11:05;23.00;99.90
2024;DHT22;1016;48.770;9.154;2022-08-19T10:13:31;23.00;99.90
2024;DHT22;1016;48.770;9.154;2022-08-19T10:16:05;23.10;99.90
2024;DHT22;1016;48.770;9.154;2022-08-19T10:18:32;23.00;99.90
2024;DHT22;1016;48.770;9.154;2022-08-19T10:21:27;23.00;99.90
2024;DHT22;1016;48.770;9.154;2022-08-19T10:23:57;23.00;99.90
2024;DHT22;1016;48.770;9.154;2022-08-19T10:26:29;23.00;99.90
2024;DHT22;1016;48.770;9.154;2022-08-19T10:28:56;23.00;99.90
2024;DHT22;1016;48.770;9.154;2022-08-19T10:31:24;23.10;99.90
2024;DHT22;1016;48.770;9.154;2022-08-19T10:33:51;23.20;99.90
2024;DHT22;1016;48.770;9.154;2022-08-19T10:36:27;23.20;99.90
2024;DHT22;1016;48.770;9.154;2022-08-19T10:38:55;23.20;99.90
2024;DHT22;1016;48.770;9.154;2022-08-19T10:41:25;23.20;99.90
2024;DHT22;1016;48.770;9.154;2022-08-19T10:43:53;23.40;99.90
2024;DHT22;1016;48.770;9.154;2022-08-19T10:46:21;23.30;99.90
2024;DHT22;1016;48.770;9.154;2022-08-19T10:48:47;23.30;99.90
2024;DHT22;1016;48.770;9.154;2022-08-19T10:51:13;23.30;99.90
2024;DHT22;1016;48.770;9.154;2022-08-19T10:53:58;23.30;99.90
2024;DHT22;1016;48.770;9.154;2022-08-19T10:56:24;23.30;99.90
2024;DHT22;1016;48.770;9.154;2022-08-19T10:59:09;23.30;99.90
2024;DHT22;1016;48.770;9.154;2022-08-19T11:01:39;23.30;99.90
2024;DHT22;1016;48.770;9.154;2022-08-19T11:04:05;23.30;99.90
2024;DHT22;1016;48.770;9.154;2022-08-19T11:06:33;23.40;99.90
2024;DHT22;1016;48.770;9.154;2022-08-19T11:08:59;23.40;99.90
2024;DHT22;1016;48.770;9.154;2022-08-19T11:11:26;23.40;99.90
2024;DHT22;1016;48.770;9.154;2022-08-19T11:13:51;23.40;99.90
2024;DHT22;1016;48.770;9.154;2022-08-19T11:16:23;23.40;99.90
2024;DHT22;1016;48.770;9.154;2022-08-19T11:18:52;23.50;99.90
2024;DHT22;1016;48.770;9.154;2022-08-19T11:21:26;23.50;99.90
2024;DHT22;1016;48.770;9.154;2022-08-19T11:23:54;23.50;99.90
2024;DHT22;1016;48.770;9.154;2022-08-19T11:26:20;23.60;99.90
2024;DHT22;1016;48.770;9.154;2022-08-19T11:28:46;23.60;99.90
2024;DHT22;1016;48.770;9.154;2022-08-19T11:31:18;23.70;99.90
2024;DHT22;1016;48.770;9.154;2022-08-19T11:33:44;23.60;99.90
2024;DHT22;1016;48.770;9.154;2022-08-19T11:36:12;23.80;99.90
2024;DHT22;1016;48.770;9.154;2022-08-19T11:38:38;23.80;99.90
2024;DHT22;1016;48.770;9.154;2022-08-19T11:41:07;23.80;99.90
2024;DHT22;1016;48.770;9.154;2022-08-19T11:43:34;23.90;99.90
2024;DHT22;1016;48.770;9.154;2022-08-19T11:46:04;23.90;99.90
2024;DHT22;1016;48.770;9.154;2022-08-19T11:48:30;23.90;99.90
2024;DHT22;1016;48.770;9.154;2022-08-19T11:50:56;24.00;99.90
2024;DHT22;1016;48.770;9.154;2022-08-19T11:53:22;24.00;99.90
2024;DHT22;1016;48.770;9.154;2022-08-19T11:55:49;24.00;99.90
2024;DHT22;1016;48.770;9.154;2022-08-19T11:58:16;24.00;99.90
2024;DHT22;1016;48.770;9.154;2022-08-19T12:00:42;24.10;99.90
2024;DHT22;1016;48.770;9.154;2022-08-19T12:03:11;24.10;99.90
2024;DHT22;1016;48.770;9.154;2022-08-19T12:05:38;24.10;99.90
2024;DHT22;1016;48.770;9.154;2022-08-19T12:08:04;24.20;99.90
2024;DHT22;1016;48.770;9.154;2022-08-19T12:10:29;24.30;99.90
2024;DHT22;1016;48.770;9.154;2022-08-19T12:12:55;24.30;99.90
2024;DHT22;1016;48.770;9.154;2022-08-19T12:15:21;24.40;99.90
2024;DHT22;1016;48.770;9.154;2022-08-19T12:17:46;24.40;99.90
2024;DHT22;1016;48.770;9.154;2022-08-19T12:20:13;24.50;99.90
2024;DHT22;1016;48.770;9.154;2022-08-19T12:22:40;24.50;99.90
2024;DHT22;1016;48.770;9.154;2022-08-19T12:25:07;24.50;99.90
2024;DHT22;1016;48.770;9.154;2022-08-19T12:27:34;24.50;99.90
2024;DHT22;1016;48.770;9.154;2022-08-19T12:30:02;24.50;99.90
2024;DHT22;1016;48.770;9.154;2022-08-19T12:32:27;24.60;99.90
2024;DHT22;1016;48.770;9.154;2022-08-19T12:34:53;24.60;99.90
2024;DHT22;1016;48.770;9.154;2022-08-19T12:37:19;24.60;99.90
2024;DHT22;1016;48.770;9.154;2022-08-19T12:39:45;24.60;99.90
2024;DHT22;1016;48.770;9.154;2022-08-19T12:42:13;24.60;99.90
2024;DHT22;1016;48.770;9.154;2022-08-19T12:44:41;24.60;99.90
2024;DHT22;1016;48.770;9.154;2022-08-19T12:47:09;24.60;99.90
2024;DHT22;1016;48.770;9.154;2022-08-19T12:49:35;24.60;99.90
2024;DHT22;1016;48.770;9.154;2022-08-19T12:52:03;24.60;99.90
2024;DHT22;1016;48.770;9.154;2022-08-19T12:54:29;24.60;99.90
2024;DHT22;1016;48.770;9.154;2022-08-19T12:56:59;24.60;99.90
2024;DHT22;1016;48.770;9.154;2022-08-19T12:59:25;24.60;99.90
2024;DHT22;1016;48.770;9.154;2022-08-19T13:01:51;24.70;99.90
2024;DHT22;1016;48.770;9.154;2022-08-19T13:04:17;24.80;99.90
2024;DHT22;1016;48.770;9.154;2022-08-19T13:06:43;24.70;99.90
2024;DHT22;1016;48.770;9.154;2022-08-19T13:09:08;24.80;99.90
2024;DHT22;1016;48.770;9.154;2022-08-19T13:11:35;24.90;99.90
2024;DHT22;1016;48.770;9.154;2022-08-19T13:14:02;24.90;99.90
2024;DHT22;1016;48.770;9.154;2022-08-19T13:16:29;24.90;99.90
2024;DHT22;1016;48.770;9.154;2022-08-19T13:18:56;24.80;99.90
2024;DHT22;1016;48.770;9.154;2022-08-19T13:21:24;24.80;99.90
2024;DHT22;1016;48.770;9.154;2022-08-19T13:23:51;24.70;99.90
2024;DHT22;1016;48.770;9.154;2022-08-19T13:26:17;24.70;99.90
2024;DHT22;1016;48.770;9.154;2022-08-19T13:28:44;24.70;99.90
2024;DHT22;1016;48.770;9.154;2022-08-19T13:31:33;24.70;99.90
2024;DHT22;1016;48.770;9.154;2022-08-19T13:34:19;24.70;99.90
2024;DHT22;1016;48.770;9.154;2022-08-19T13:36:52;24.60;99.90
2024;DHT22;1016;48.770;9.154;2022-08-19T13:39:18;24.60;99.90
2024;DHT22;1016;48.770;9.154;2022-08-19T13:41:45;24.60;99.90
2024;DHT22;1016;48.770;9.154;2022-08-19T13:44:16;24.50;99.90
2024;DHT22;1016;48.770;9.154;2022-08-19T13:46:43;24.50;99.90
2024;DHT22;1016;48.770;9.154;2022-08-19T13:49:13;24.40;99.90
2024;DHT22;1016;48.770;9.154;2022-08-19T13:51:41;24.40;99.90
2024;DHT22;1016;48.770;9.154;2022-08-19T13:54:08;24.40;99.90
2024;DHT22;1016;48.770;9.154;2022-08-19T13:56:35;24.30;99.90
2024;DHT22;1016;48.770;9.154;2022-08-19T13:59:01;24.30;99.90
2024;DHT22;1016;48.770;9.154;2022-08-19T14:01:27;24.30;99.90
2024;DHT22;1016;48.770;9.154;2022-08-19T14:03:53;24.20;99.90
2024;DHT22;1016;48.770;9.154;2022-08-19T14:06:19;24.20;99.90
2024;DHT22;1016;48.770;9.154;2022-08-19T14:08:46;24.20;99.90
2024;DHT22;1016;48.770;9.154;2022-08-19T14:11:12;24.00;99.90
2024;DHT22;1016;48.770;9.154;2022-08-19T14:13:37;24.00;99.90
2024;DHT22;1016;48.770;9.154;2022-08-19T14:16:10;24.00;99.90
2024;DHT22;1016;48.770;9.154;2022-08-19T14:18:37;24.00;99.90
2024;DHT22;1016;48.770;9.154;2022-08-19T14:21:03;24.00;99.90
2024;DHT22;1016;48.770;9.154;2022-08-19T14:23:30;23.90;99.90
2024;DHT22;1016;48.770;9.154;2022-08-19T14:26:11;23.90;99.90
2024;DHT22;1016;48.770;9.154;2022-08-19T14:28:38;24.90;99.90
2024;DHT22;1016;48.770;9.154;2022-08-19T14:31:06;25.30;99.90
2024;DHT22;1016;48.770;9.154;2022-08-19T14:33:32;25.20;99.90
2024;DHT22;1016;48.770;9.154;2022-08-19T14:35:57;25.20;99.90
2024;DHT22;1016;48.770;9.154;2022-08-19T14:38:23;25.00;99.90
2024;DHT22;1016;48.770;9.154;2022-08-19T14:40:48;24.80;99.90
2024;DHT22;1016;48.770;9.154;2022-08-19T14:43:14;24.70;99.90
2024;DHT22;1016;48.770;9.154;2022-08-19T14:45:40;24.60;99.90
2024;DHT22;1016;48.770;9.154;2022-08-19T14:48:07;24.50;99.90
2024;DHT22;1016;48.770;9.154;2022-08-19T14:50:34;24.40;99.90
2024;DHT22;1016;48.770;9.154;2022-08-19T14:53:06;24.40;99.90
2024;DHT22;1016;48.770;9.154;2022-08-19T14:55:32;24.30;99.90
2024;DHT22;1016;48.770;9.154;2022-08-19T14:57:58;24.30;99.90
2024;DHT22;1016;48.770;9.154;2022-08-19T15:00:24;24.30;99.90
2024;DHT22;1016;48.770;9.154;2022-08-19T15:02:51;24.20;99.90
2024;DHT22;1016;48.770;9.154;2022-08-19T15:05:17;24.20;99.90
2024;DHT22;1016;48.770;9.154;2022-08-19T15:07:43;24.10;99.90
2024;DHT22;1016;48.770;9.154;2022-08-19T15:10:10;24.10;99.90
2024;DHT22;1016;48.770;9.154;2022-08-19T15:12:38;24.20;99.90
2024;DHT22;1016;48.770;9.154;2022-08-19T15:15:06;24.10;99.90
2024;DHT22;1016;48.770;9.154;2022-08-19T15:17:32;24.10;99.90
2024;DHT22;1016;48.770;9.154;2022-08-19T15:19:58;24.20;99.90
2024;DHT22;1016;48.770;9.154;2022-08-19T15:22:23;24.30;99.90
2024;DHT22;1016;48.770;9.154;2022-08-19T15:24:49;24.20;99.90
2024;DHT22;1016;48.770;9.154;2022-08-19T15:27:14;24.20;99.90
2024;DHT22;1016;48.770;9.154;2022-08-19T15:29:40;24.20;99.90
2024;DHT22;1016;48.770;9.154;2022-08-19T15:32:06;24.30;99.90
2024;DHT22;1016;48.770;9.154;2022-08-19T15:34:33;24.30;99.90
2024;DHT22;1016;48.770;9.154;2022-08-19T15:36:59;24.30;99.90
2024;DHT22;1016;48.770;9.154;2022-08-19T15:39:25;24.30;99.90
2024;DHT22;1016;48.770;9.154;2022-08-19T15:41:50;24.30;99.90
2024;DHT22;1016;48.770;9.154;2022-08-19T15:44:18;24.30;99.90
2024;DHT22;1016;48.770;9.154;2022-08-19T15:46:45;24.30;99.90
2024;DHT22;1016;48.770;9.154;2022-08-19T15:49:14;24.30;99.90
2024;DHT22;1016;48.770;9.154;2022-08-19T15:51:41;24.30;99.90
2024;DHT22;1016;48.770;9.154;2022-08-19T15:54:10;24.40;99.90
2024;DHT22;1016;48.770;9.154;2022-08-19T15:56:36;24.40;99.90
2024;DHT22;1016;48.770;9.154;2022-08-19T15:59:20;24.40;99.90
2024;DHT22;1016;48.770;9.154;2022-08-19T16:02:04;24.50;99.90
2024;DHT22;1016;48.770;9.154;2022-08-19T16:04:48;24.50;99.90
2024;DHT22;1016;48.770;9.154;2022-08-19T16:07:34;24.50;99.90
2024;DHT22;1016;48.770;9.154;2022-08-19T16:09:59;24.60;99.90
2024;DHT22;1016;48.770;9.154;2022-08-19T16:12:25;24.60;99.90
2024;DHT22;1016;48.770;9.154;2022-08-19T16:14:53;24.70;99.90